sensor_id;sensor_type;location;lat;lon;timestamp;P1;durP1;ratioP1;P2;durP2;ratioP2
15567;SDS011;7885;42.596;23.044;2022-12-04T00:01:30;21.63;;;14.73;;
15567;SDS011;7885;42.596;23.044;2022-12-04T00:03:57;18.90;;;14.33;;
15567;SDS011;7885;42.596;23.044;2022-12-04T00:06:27;17.90;;;13.73;;
15567;SDS011;7885;42.596;23.044;2022-12-04T00:08:55;20.00;;;14.70;;
15567;SDS011;7885;42.596;23.044;2022-12-04T00:11:23;20.40;;;15.90;;
15567;SDS011;7885;42.596;23.044;2022-12-04T00:13:51;22.10;;;17.43;;
15567;SDS011;7885;42.596;23.044;2022-12-04T00:16:19;21.50;;;17.60;;
15567;SDS011;7885;42.596;23.044;2022-12-04T00:18:47;22.23;;;19.53;;
15567;SDS011;7885;42.596;23.044;2022-12-04T00:21:15;20.53;;;16.37;;
15567;SDS011;7885;42.596;23.044;2022-12-04T00:23:44;21.20;;;15.27;;
15567;SDS011;7885;42.596;23.044;2022-12-04T00:26:12;20.00;;;16.47;;
15567;SDS011;7885;42.596;23.044;2022-12-04T00:28:40;19.17;;;14.87;;
15567;SDS011;7885;42.596;23.044;2022-12-04T00:31:09;18.47;;;14.63;;
15567;SDS011;7885;42.596;23.044;2022-12-04T00:33:37;20.37;;;16.13;;
15567;SDS011;7885;42.596;23.044;2022-12-04T00:36:05;22.17;;;17.97;;
15567;SDS011;7885;42.596;23.044;2022-12-04T00:38:34;23.87;;;18.57;;
15567;SDS011;7885;42.596;23.044;2022-12-04T00:44:24;25.43;;;22.37;;
15567;SDS011;7885;42.596;23.044;2022-12-04T00:46:51;21.80;;;19.47;;
15567;SDS011;7885;42.596;23.044;2022-12-04T00:49:18;25.60;;;21.90;;
15567;SDS011;7885;42.596;23.044;2022-12-04T00:51:44;20.97;;;18.07;;
15567;SDS011;7885;42.596;23.044;2022-12-04T00:54:11;19.73;;;15.90;;
15567;SDS011;7885;42.596;23.044;2022-12-04T00:56:38;20.60;;;16.83;;
15567;SDS011;7885;42.596;23.044;2022-12-04T00:59:05;19.37;;;14.93;;
15567;SDS011;7885;42.596;23.044;2022-12-04T01:01:33;19.53;;;15.77;;
15567;SDS011;7885;42.596;23.044;2022-12-04T01:04:00;18.87;;;15.40;;
15567;SDS011;7885;42.596;23.044;2022-12-04T01:06:28;19.63;;;16.37;;
15567;SDS011;7885;42.596;23.044;2022-12-04T01:08:56;20.20;;;16.43;;
15567;SDS011;7885;42.596;23.044;2022-12-04T01:11:24;19.63;;;16.60;;
15567;SDS011;7885;42.596;23.044;2022-12-04T01:13:52;18.87;;;16.13;;
15567;SDS011;7885;42.596;23.044;2022-12-04T01:16:20;22.43;;;18.53;;
15567;SDS011;7885;42.596;23.044;2022-12-04T01:18:50;23.60;;;17.57;;
15567;SDS011;7885;42.596;23.044;2022-12-04T01:21:17;23.10;;;17.80;;
15567;SDS011;7885;42.596;23.044;2022-12-04T01:37:13;17.27;;;15.37;;
15567;SDS011;7885;42.596;23.044;2022-12-04T01:39:40;14.63;;;12.93;;
15567;SDS011;7885;42.596;23.044;2022-12-04T01:42:08;17.60;;;15.80;;
15567;SDS011;7885;42.596;23.044;2022-12-04T01:44:39;12.53;;;10.70;;
15567;SDS011;7885;42.596;23.044;2022-12-04T01:47:07;14.07;;;10.90;;
15567;SDS011;7885;42.596;23.044;2022-12-04T01:49:37;12.43;;;9.00;;
15567;SDS011;7885;42.596;23.044;2022-12-04T01:52:07;11.07;;;9.13;;
15567;SDS011;7885;42.596;23.044;2022-12-04T01:54:40;10.60;;;9.50;;
15567;SDS011;7885;42.596;23.044;2022-12-04T01:57:11;10.77;;;9.17;;
15567;SDS011;7885;42.596;23.044;2022-12-04T01:59:41;10.40;;;8.93;;
15567;SDS011;7885;42.596;23.044;2022-12-04T02:02:12;10.73;;;8.83;;
15567;SDS011;7885;42.596;23.044;2022-12-04T02:04:40;9.70;;;8.33;;
15567;SDS011;7885;42.596;23.044;2022-12-04T02:07:09;9.60;;;7.67;;
15567;SDS011;7885;42.596;23.044;2022-12-04T02:09:36;9.27;;;7.73;;
15567;SDS011;7885;42.596;23.044;2022-12-04T02:12:07;8.37;;;7.47;;
15567;SDS011;7885;42.596;23.044;2022-12-04T02:14:45;11.53;;;8.90;;
15567;SDS011;7885;42.596;23.044;2022-12-04T02:17:21;12.07;;;10.47;;
15567;SDS011;7885;42.596;23.044;2022-12-04T02:22:55;13.77;;;11.43;;
15567;SDS011;7885;42.596;23.044;2022-12-04T02:25:47;12.70;;;9.93;;
15567;SDS011;7885;42.596;23.044;2022-12-04T02:28:27;11.20;;;9.03;;
15567;SDS011;7885;42.596;23.044;2022-12-04T02:30:58;14.00;;;11.03;;
15567;SDS011;7885;42.596;23.044;2022-12-04T02:33:28;19.20;;;15.23;;
15567;SDS011;7885;42.596;23.044;2022-12-04T02:36:03;17.10;;;13.63;;
15567;SDS011;7885;42.596;23.044;2022-12-04T02:38:34;17.00;;;12.70;;
15567;SDS011;7885;42.596;23.044;2022-12-04T02:41:05;19.00;;;14.13;;
15567;SDS011;7885;42.596;23.044;2022-12-04T02:43:38;18.57;;;14.10;;
15567;SDS011;7885;42.596;23.044;2022-12-04T02:46:12;19.17;;;14.10;;
15567;SDS011;7885;42.596;23.044;2022-12-04T02:48:44;19.27;;;14.13;;
15567;SDS011;7885;42.596;23.044;2022-12-04T02:51:15;21.67;;;14.70;;
15567;SDS011;7885;42.596;23.044;2022-12-04T03:03:52;25.83;;;16.97;;
15567;SDS011;7885;42.596;23.044;2022-12-04T03:06:24;23.50;;;13.77;;
15567;SDS011;7885;42.596;23.044;2022-12-04T03:08:56;21.90;;;15.37;;
15567;SDS011;7885;42.596;23.044;2022-12-04T03:11:29;22.17;;;15.80;;
15567;SDS011;7885;42.596;23.044;2022-12-04T03:14:00;22.17;;;16.07;;
15567;SDS011;7885;42.596;23.044;2022-12-04T03:16:34;22.40;;;17.83;;
15567;SDS011;7885;42.596;23.044;2022-12-04T03:19:06;23.87;;;15.47;;
15567;SDS011;7885;42.596;23.044;2022-12-04T03:21:36;21.73;;;14.03;;
15567;SDS011;7885;42.596;23.044;2022-12-04T03:24:09;22.63;;;14.97;;
15567;SDS011;7885;42.596;23.044;2022-12-04T03:26:40;21.27;;;14.60;;
15567;SDS011;7885;42.596;23.044;2022-12-04T03:29:12;23.53;;;14.90;;
15567;SDS011;7885;42.596;23.044;2022-12-04T03:31:44;21.20;;;14.63;;
15567;SDS011;7885;42.596;23.044;2022-12-04T03:34:16;27.77;;;18.07;;
15567;SDS011;7885;42.596;23.044;2022-12-04T03:36:51;23.50;;;16.63;;
15567;SDS011;7885;42.596;23.044;2022-12-04T03:46:07;28.93;;;19.47;;
15567;SDS011;7885;42.596;23.044;2022-12-04T03:48:37;29.67;;;19.77;;
15567;SDS011;7885;42.596;23.044;2022-12-04T03:51:14;28.03;;;18.97;;
15567;SDS011;7885;42.596;23.044;2022-12-04T03:53:46;37.57;;;25.13;;
15567;SDS011;7885;42.596;23.044;2022-12-04T04:03:02;24.60;;;17.63;;
15567;SDS011;7885;42.596;23.044;2022-12-04T04:05:34;30.40;;;20.57;;
15567;SDS011;7885;42.596;23.044;2022-12-04T04:08:05;40.40;;;28.63;;
15567;SDS011;7885;42.596;23.044;2022-12-04T04:10:54;32.97;;;24.90;;
15567;SDS011;7885;42.596;23.044;2022-12-04T04:13:24;39.13;;;27.83;;
15567;SDS011;7885;42.596;23.044;2022-12-04T04:16:12;39.70;;;26.80;;
15567;SDS011;7885;42.596;23.044;2022-12-04T04:18:59;48.30;;;26.67;;
15567;SDS011;7885;42.596;23.044;2022-12-04T04:21:45;34.17;;;23.13;;
15567;SDS011;7885;42.596;23.044;2022-12-04T04:24:35;34.93;;;23.73;;
15567;SDS011;7885;42.596;23.044;2022-12-04T04:27:05;36.60;;;24.07;;
15567;SDS011;7885;42.596;23.044;2022-12-04T04:29:32;40.10;;;23.63;;
15567;SDS011;7885;42.596;23.044;2022-12-04T04:32:01;39.73;;;24.50;;
15567;SDS011;7885;42.596;23.044;2022-12-04T04:34:36;38.27;;;25.17;;
15567;SDS011;7885;42.596;23.044;2022-12-04T04:37:10;36.90;;;25.50;;
15567;SDS011;7885;42.596;23.044;2022-12-04T04:39:50;36.33;;;23.73;;
15567;SDS011;7885;42.596;23.044;2022-12-04T04:42:23;40.47;;;23.53;;
15567;SDS011;7885;42.596;23.044;2022-12-04T04:48:19;36.40;;;25.27;;
15567;SDS011;7885;42.596;23.044;2022-12-04T04:50:51;36.57;;;22.73;;
15567;SDS011;7885;42.596;23.044;2022-12-04T04:53:19;27.50;;;19.80;;
15567;SDS011;7885;42.596;23.044;2022-12-04T04:55:50;29.27;;;19.57;;
15567;SDS011;7885;42.596;23.044;2022-12-04T04:58:18;40.57;;;27.93;;
15567;SDS011;7885;42.596;23.044;2022-12-04T05:00:47;38.37;;;25.00;;
15567;SDS011;7885;42.596;23.044;2022-12-04T05:03:20;26.90;;;18.27;;
15567;SDS011;7885;42.596;23.044;2022-12-04T05:05:47;22.30;;;13.93;;
15567;SDS011;7885;42.596;23.044;2022-12-04T05:08:14;18.43;;;13.30;;
15567;SDS011;7885;42.596;23.044;2022-12-04T05:10:41;20.63;;;16.37;;
15567;SDS011;7885;42.596;23.044;2022-12-04T05:36:41;18.70;;;13.17;;
15567;SDS011;7885;42.596;23.044;2022-12-04T05:39:08;24.13;;;20.87;;
15567;SDS011;7885;42.596;23.044;2022-12-04T05:41:34;23.03;;;17.60;;
15567;SDS011;7885;42.596;23.044;2022-12-04T05:44:01;18.33;;;14.10;;
15567;SDS011;7885;42.596;23.044;2022-12-04T05:46:28;26.80;;;20.80;;
15567;SDS011;7885;42.596;23.044;2022-12-04T05:48:56;28.63;;;23.67;;
15567;SDS011;7885;42.596;23.044;2022-12-04T05:51:22;28.33;;;20.50;;
15567;SDS011;7885;42.596;23.044;2022-12-04T05:53:51;24.47;;;18.57;;
15567;SDS011;7885;42.596;23.044;2022-12-04T05:56:18;21.40;;;17.33;;
15567;SDS011;7885;42.596;23.044;2022-12-04T05:58:45;22.10;;;15.80;;
15567;SDS011;7885;42.596;23.044;2022-12-04T06:01:13;17.60;;;13.90;;
15567;SDS011;7885;42.596;23.044;2022-12-04T06:03:41;16.83;;;13.93;;
15567;SDS011;7885;42.596;23.044;2022-12-04T06:06:10;16.77;;;12.73;;
15567;SDS011;7885;42.596;23.044;2022-12-04T06:08:38;15.73;;;12.37;;
15567;SDS011;7885;42.596;23.044;2022-12-04T06:11:10;16.77;;;11.83;;
15567;SDS011;7885;42.596;23.044;2022-12-04T06:13:38;16.27;;;12.07;;
15567;SDS011;7885;42.596;23.044;2022-12-04T06:16:10;21.60;;;18.30;;
15567;SDS011;7885;42.596;23.044;2022-12-04T06:18:38;22.37;;;19.63;;
15567;SDS011;7885;42.596;23.044;2022-12-04T06:21:05;22.73;;;16.30;;
15567;SDS011;7885;42.596;23.044;2022-12-04T06:23:32;26.53;;;17.70;;
15567;SDS011;7885;42.596;23.044;2022-12-04T06:26:00;23.33;;;17.50;;
15567;SDS011;7885;42.596;23.044;2022-12-04T06:28:30;24.43;;;17.47;;
15567;SDS011;7885;42.596;23.044;2022-12-04T06:30:59;23.70;;;16.77;;
15567;SDS011;7885;42.596;23.044;2022-12-04T06:33:27;21.80;;;17.77;;
15567;SDS011;7885;42.596;23.044;2022-12-04T06:35:57;22.57;;;17.10;;
15567;SDS011;7885;42.596;23.044;2022-12-04T06:38:25;20.87;;;13.57;;
15567;SDS011;7885;42.596;23.044;2022-12-04T06:47:36;50.77;;;36.77;;
15567;SDS011;7885;42.596;23.044;2022-12-04T06:50:04;47.40;;;36.53;;
15567;SDS011;7885;42.596;23.044;2022-12-04T06:52:31;29.93;;;24.87;;
15567;SDS011;7885;42.596;23.044;2022-12-04T06:54:58;36.27;;;28.07;;
15567;SDS011;7885;42.596;23.044;2022-12-04T06:57:25;51.30;;;39.33;;
15567;SDS011;7885;42.596;23.044;2022-12-04T06:59:53;57.70;;;43.37;;
15567;SDS011;7885;42.596;23.044;2022-12-04T07:02:20;64.93;;;45.40;;
15567;SDS011;7885;42.596;23.044;2022-12-04T07:04:48;59.30;;;41.80;;
15567;SDS011;7885;42.596;23.044;2022-12-04T07:07:15;55.60;;;38.70;;
15567;SDS011;7885;42.596;23.044;2022-12-04T07:09:41;37.70;;;29.17;;
15567;SDS011;7885;42.596;23.044;2022-12-04T07:12:09;35.73;;;24.67;;
15567;SDS011;7885;42.596;23.044;2022-12-04T07:14:36;27.07;;;22.73;;
15567;SDS011;7885;42.596;23.044;2022-12-04T07:17:03;26.50;;;19.47;;
15567;SDS011;7885;42.596;23.044;2022-12-04T07:19:29;25.87;;;19.93;;
15567;SDS011;7885;42.596;23.044;2022-12-04T07:21:58;26.37;;;18.73;;
15567;SDS011;7885;42.596;23.044;2022-12-04T07:24:24;24.83;;;17.63;;
15567;SDS011;7885;42.596;23.044;2022-12-04T07:26:51;25.43;;;19.33;;
15567;SDS011;7885;42.596;23.044;2022-12-04T07:29:18;24.53;;;19.27;;
15567;SDS011;7885;42.596;23.044;2022-12-04T07:31:45;25.07;;;19.00;;
15567;SDS011;7885;42.596;23.044;2022-12-04T07:34:11;29.60;;;21.80;;
15567;SDS011;7885;42.596;23.044;2022-12-04T07:36:38;30.43;;;23.87;;
15567;SDS011;7885;42.596;23.044;2022-12-04T07:39:07;37.77;;;24.70;;
15567;SDS011;7885;42.596;23.044;2022-12-04T07:41:34;32.20;;;23.20;;
15567;SDS011;7885;42.596;23.044;2022-12-04T07:44:01;36.73;;;22.63;;
15567;SDS011;7885;42.596;23.044;2022-12-04T07:46:28;32.30;;;23.20;;
15567;SDS011;7885;42.596;23.044;2022-12-04T07:48:55;37.00;;;25.30;;
15567;SDS011;7885;42.596;23.044;2022-12-04T07:51:24;64.47;;;44.83;;
15567;SDS011;7885;42.596;23.044;2022-12-04T07:53:52;51.27;;;35.73;;
15567;SDS011;7885;42.596;23.044;2022-12-04T07:56:23;48.70;;;36.73;;
15567;SDS011;7885;42.596;23.044;2022-12-04T07:58:50;66.63;;;44.70;;
15567;SDS011;7885;42.596;23.044;2022-12-04T08:01:18;43.57;;;34.13;;
15567;SDS011;7885;42.596;23.044;2022-12-04T08:03:46;43.50;;;33.70;;
15567;SDS011;7885;42.596;23.044;2022-12-04T08:06:15;50.10;;;35.47;;
15567;SDS011;7885;42.596;23.044;2022-12-04T08:08:43;49.00;;;35.40;;
15567;SDS011;7885;42.596;23.044;2022-12-04T08:11:10;46.67;;;34.70;;
15567;SDS011;7885;42.596;23.044;2022-12-04T08:13:40;34.33;;;27.03;;
15567;SDS011;7885;42.596;23.044;2022-12-04T08:16:08;33.27;;;26.07;;
15567;SDS011;7885;42.596;23.044;2022-12-04T08:18:36;43.73;;;33.40;;
15567;SDS011;7885;42.596;23.044;2022-12-04T08:21:04;41.27;;;30.90;;
15567;SDS011;7885;42.596;23.044;2022-12-04T08:23:32;33.03;;;25.20;;
15567;SDS011;7885;42.596;23.044;2022-12-04T08:25:59;35.80;;;29.00;;
15567;SDS011;7885;42.596;23.044;2022-12-04T08:28:26;32.40;;;24.80;;
15567;SDS011;7885;42.596;23.044;2022-12-04T08:31:00;30.60;;;23.40;;
15567;SDS011;7885;42.596;23.044;2022-12-04T08:33:28;26.37;;;18.70;;
15567;SDS011;7885;42.596;23.044;2022-12-04T08:35:55;23.87;;;17.83;;
15567;SDS011;7885;42.596;23.044;2022-12-04T08:38:22;23.93;;;18.33;;
15567;SDS011;7885;42.596;23.044;2022-12-04T08:40:49;27.03;;;20.47;;
15567;SDS011;7885;42.596;23.044;2022-12-04T08:43:16;25.87;;;19.43;;
15567;SDS011;7885;42.596;23.044;2022-12-04T08:45:42;24.90;;;20.40;;
15567;SDS011;7885;42.596;23.044;2022-12-04T08:48:11;33.17;;;26.50;;
15567;SDS011;7885;42.596;23.044;2022-12-04T08:50:42;35.03;;;29.30;;
15567;SDS011;7885;42.596;23.044;2022-12-04T08:53:09;42.97;;;29.73;;
15567;SDS011;7885;42.596;23.044;2022-12-04T08:55:36;35.10;;;28.77;;
15567;SDS011;7885;42.596;23.044;2022-12-04T08:58:03;34.37;;;26.83;;
15567;SDS011;7885;42.596;23.044;2022-12-04T09:00:30;33.07;;;27.30;;
15567;SDS011;7885;42.596;23.044;2022-12-04T09:02:56;17.03;;;13.97;;
15567;SDS011;7885;42.596;23.044;2022-12-04T09:05:24;12.67;;;9.50;;
15567;SDS011;7885;42.596;23.044;2022-12-04T09:07:51;9.80;;;8.83;;
15567;SDS011;7885;42.596;23.044;2022-12-04T09:10:18;10.03;;;8.47;;
15567;SDS011;7885;42.596;23.044;2022-12-04T09:12:45;9.80;;;8.87;;
15567;SDS011;7885;42.596;23.044;2022-12-04T09:15:12;10.80;;;9.70;;
15567;SDS011;7885;42.596;23.044;2022-12-04T09:17:38;10.43;;;9.43;;
15567;SDS011;7885;42.596;23.044;2022-12-04T09:20:06;9.13;;;8.23;;
15567;SDS011;7885;42.596;23.044;2022-12-04T09:22:35;10.37;;;8.70;;
15567;SDS011;7885;42.596;23.044;2022-12-04T09:25:03;8.17;;;7.37;;
15567;SDS011;7885;42.596;23.044;2022-12-04T09:27:34;36.97;;;22.00;;
15567;SDS011;7885;42.596;23.044;2022-12-04T09:30:02;8.47;;;7.07;;
15567;SDS011;7885;42.596;23.044;2022-12-04T09:32:29;7.30;;;6.13;;
15567;SDS011;7885;42.596;23.044;2022-12-04T09:34:55;10.33;;;9.43;;
15567;SDS011;7885;42.596;23.044;2022-12-04T09:37:22;9.60;;;8.63;;
15567;SDS011;7885;42.596;23.044;2022-12-04T09:39:50;6.47;;;5.90;;
15567;SDS011;7885;42.596;23.044;2022-12-04T09:42:24;6.83;;;5.37;;
15567;SDS011;7885;42.596;23.044;2022-12-04T09:44:58;6.03;;;5.07;;
15567;SDS011;7885;42.596;23.044;2022-12-04T09:47:33;9.03;;;8.13;;
15567;SDS011;7885;42.596;23.044;2022-12-04T09:50:04;10.80;;;8.87;;
15567;SDS011;7885;42.596;23.044;2022-12-04T09:52:41;7.10;;;5.83;;
15567;SDS011;7885;42.596;23.044;2022-12-04T09:55:16;5.73;;;5.10;;
15567;SDS011;7885;42.596;23.044;2022-12-04T09:57:48;8.20;;;7.40;;
15567;SDS011;7885;42.596;23.044;2022-12-04T10:00:17;5.80;;;5.30;;
15567;SDS011;7885;42.596;23.044;2022-12-04T10:02:47;5.20;;;4.80;;
15567;SDS011;7885;42.596;23.044;2022-12-04T10:05:18;9.17;;;7.77;;
15567;SDS011;7885;42.596;23.044;2022-12-04T10:07:53;5.90;;;5.30;;
15567;SDS011;7885;42.596;23.044;2022-12-04T10:10:33;5.47;;;4.97;;
15567;SDS011;7885;42.596;23.044;2022-12-04T10:13:05;5.20;;;4.70;;
15567;SDS011;7885;42.596;23.044;2022-12-04T10:15:45;5.67;;;4.50;;
15567;SDS011;7885;42.596;23.044;2022-12-04T10:18:22;5.37;;;4.87;;
15567;SDS011;7885;42.596;23.044;2022-12-04T10:21:13;4.97;;;4.50;;
15567;SDS011;7885;42.596;23.044;2022-12-04T10:23:53;4.83;;;4.43;;
15567;SDS011;7885;42.596;23.044;2022-12-04T10:26:33;5.47;;;4.90;;
15567;SDS011;7885;42.596;23.044;2022-12-04T10:29:05;13.40;;;8.93;;
15567;SDS011;7885;42.596;23.044;2022-12-04T10:31:34;17.63;;;12.33;;
15567;SDS011;7885;42.596;23.044;2022-12-04T10:34:04;20.40;;;13.73;;
15567;SDS011;7885;42.596;23.044;2022-12-04T10:36:38;18.30;;;14.17;;
15567;SDS011;7885;42.596;23.044;2022-12-04T10:39:09;19.67;;;12.40;;
15567;SDS011;7885;42.596;23.044;2022-12-04T10:41:49;15.17;;;12.60;;
15567;SDS011;7885;42.596;23.044;2022-12-04T10:44:22;16.43;;;12.30;;
15567;SDS011;7885;42.596;23.044;2022-12-04T10:46:49;16.07;;;12.93;;
15567;SDS011;7885;42.596;23.044;2022-12-04T10:49:21;14.70;;;11.93;;
15567;SDS011;7885;42.596;23.044;2022-12-04T10:51:51;14.93;;;13.10;;
15567;SDS011;7885;42.596;23.044;2022-12-04T10:54:19;15.00;;;12.87;;
15567;SDS011;7885;42.596;23.044;2022-12-04T10:56:53;14.73;;;13.00;;
15567;SDS011;7885;42.596;23.044;2022-12-04T10:59:21;16.33;;;13.50;;
15567;SDS011;7885;42.596;23.044;2022-12-04T11:01:49;18.30;;;13.03;;
15567;SDS011;7885;42.596;23.044;2022-12-04T11:04:22;17.47;;;13.97;;
15567;SDS011;7885;42.596;23.044;2022-12-04T11:06:58;17.17;;;15.40;;
15567;SDS011;7885;42.596;23.044;2022-12-04T11:09:27;20.63;;;14.70;;
15567;SDS011;7885;42.596;23.044;2022-12-04T11:12:03;17.10;;;13.27;;
15567;SDS011;7885;42.596;23.044;2022-12-04T11:14:31;22.53;;;16.67;;
15567;SDS011;7885;42.596;23.044;2022-12-04T11:16:59;16.53;;;14.30;;
15567;SDS011;7885;42.596;23.044;2022-12-04T11:19:28;16.77;;;14.23;;
15567;SDS011;7885;42.596;23.044;2022-12-04T11:21:57;14.20;;;12.63;;
15567;SDS011;7885;42.596;23.044;2022-12-04T11:24:31;20.70;;;16.20;;
15567;SDS011;7885;42.596;23.044;2022-12-04T11:27:01;16.83;;;14.83;;
15567;SDS011;7885;42.596;23.044;2022-12-04T11:29:30;20.07;;;15.70;;
15567;SDS011;7885;42.596;23.044;2022-12-04T11:35:21;18.87;;;16.87;;
15567;SDS011;7885;42.596;23.044;2022-12-04T11:37:50;13.10;;;10.37;;
15567;SDS011;7885;42.596;23.044;2022-12-04T11:40:20;20.53;;;17.20;;
15567;SDS011;7885;42.596;23.044;2022-12-04T11:43:03;17.60;;;14.97;;
15567;SDS011;7885;42.596;23.044;2022-12-04T11:45:36;16.33;;;14.07;;
15567;SDS011;7885;42.596;23.044;2022-12-04T11:48:05;13.80;;;10.80;;
15567;SDS011;7885;42.596;23.044;2022-12-04T11:50:42;18.73;;;15.23;;
15567;SDS011;7885;42.596;23.044;2022-12-04T11:53:16;23.77;;;16.40;;
15567;SDS011;7885;42.596;23.044;2022-12-04T11:56:00;20.50;;;15.80;;
15567;SDS011;7885;42.596;23.044;2022-12-04T11:58:45;14.37;;;11.57;;
15567;SDS011;7885;42.596;23.044;2022-12-04T12:01:25;13.13;;;9.60;;
15567;SDS011;7885;42.596;23.044;2022-12-04T12:04:06;21.60;;;15.80;;
15567;SDS011;7885;42.596;23.044;2022-12-04T12:06:52;14.33;;;11.77;;
15567;SDS011;7885;42.596;23.044;2022-12-04T12:09:26;19.87;;;15.10;;
15567;SDS011;7885;42.596;23.044;2022-12-04T12:12:00;16.20;;;12.07;;
15567;SDS011;7885;42.596;23.044;2022-12-04T12:14:33;15.60;;;13.00;;
15567;SDS011;7885;42.596;23.044;2022-12-04T12:17:10;14.13;;;11.30;;
15567;SDS011;7885;42.596;23.044;2022-12-04T12:22:53;20.43;;;12.30;;
15567;SDS011;7885;42.596;23.044;2022-12-04T12:25:30;16.37;;;14.57;;
15567;SDS011;7885;42.596;23.044;2022-12-04T12:28:15;16.07;;;13.60;;
15567;SDS011;7885;42.596;23.044;2022-12-04T12:30:59;15.30;;;13.60;;
15567;SDS011;7885;42.596;23.044;2022-12-04T12:33:37;13.40;;;11.13;;
15567;SDS011;7885;42.596;23.044;2022-12-04T12:36:09;13.23;;;11.17;;
15567;SDS011;7885;42.596;23.044;2022-12-04T12:38:38;9.53;;;8.50;;
15567;SDS011;7885;42.596;23.044;2022-12-04T12:41:10;11.77;;;9.13;;
15567;SDS011;7885;42.596;23.044;2022-12-04T12:43:39;10.93;;;9.03;;
15567;SDS011;7885;42.596;23.044;2022-12-04T12:46:13;11.93;;;9.13;;
15567;SDS011;7885;42.596;23.044;2022-12-04T12:48:44;10.90;;;9.80;;
15567;SDS011;7885;42.596;23.044;2022-12-04T12:51:20;11.67;;;9.63;;
15567;SDS011;7885;42.596;23.044;2022-12-04T12:53:57;11.60;;;10.40;;
15567;SDS011;7885;42.596;23.044;2022-12-04T12:56:36;15.03;;;10.90;;
15567;SDS011;7885;42.596;23.044;2022-12-04T12:59:07;13.73;;;11.00;;
15567;SDS011;7885;42.596;23.044;2022-12-04T13:01:44;15.60;;;10.40;;
15567;SDS011;7885;42.596;23.044;2022-12-04T13:04:17;11.70;;;10.10;;
15567;SDS011;7885;42.596;23.044;2022-12-04T13:06:50;15.73;;;10.47;;
15567;SDS011;7885;42.596;23.044;2022-12-04T13:09:23;12.57;;;9.17;;
15567;SDS011;7885;42.596;23.044;2022-12-04T13:11:57;11.43;;;9.80;;
15567;SDS011;7885;42.596;23.044;2022-12-04T13:14:26;7.50;;;6.70;;
15567;SDS011;7885;42.596;23.044;2022-12-04T13:16:54;8.63;;;6.83;;
15567;SDS011;7885;42.596;23.044;2022-12-04T13:19:25;10.90;;;10.00;;
15567;SDS011;7885;42.596;23.044;2022-12-04T13:21:56;10.70;;;9.33;;
15567;SDS011;7885;42.596;23.044;2022-12-04T13:24:45;8.97;;;6.50;;
15567;SDS011;7885;42.596;23.044;2022-12-04T13:27:36;8.37;;;6.53;;
15567;SDS011;7885;42.596;23.044;2022-12-04T13:30:14;11.80;;;7.87;;
15567;SDS011;7885;42.596;23.044;2022-12-04T13:35:46;8.87;;;7.20;;
15567;SDS011;7885;42.596;23.044;2022-12-04T13:42:02;7.50;;;6.47;;
15567;SDS011;7885;42.596;23.044;2022-12-04T13:44:30;11.50;;;6.50;;
15567;SDS011;7885;42.596;23.044;2022-12-04T13:47:00;10.33;;;6.47;;
15567;SDS011;7885;42.596;23.044;2022-12-04T13:49:30;7.20;;;6.47;;
15567;SDS011;7885;42.596;23.044;2022-12-04T13:51:59;9.27;;;6.80;;
15567;SDS011;7885;42.596;23.044;2022-12-04T13:54:28;14.73;;;6.43;;
15567;SDS011;7885;42.596;23.044;2022-12-04T13:57:08;9.10;;;6.33;;
15567;SDS011;7885;42.596;23.044;2022-12-04T13:59:43;8.53;;;5.80;;
15567;SDS011;7885;42.596;23.044;2022-12-04T14:02:21;9.23;;;7.53;;
15567;SDS011;7885;42.596;23.044;2022-12-04T14:04:55;11.00;;;9.67;;
15567;SDS011;7885;42.596;23.044;2022-12-04T14:07:25;9.30;;;8.27;;
15567;SDS011;7885;42.596;23.044;2022-12-04T14:09:55;10.70;;;8.93;;
15567;SDS011;7885;42.596;23.044;2022-12-04T14:12:24;11.57;;;9.63;;
15567;SDS011;7885;42.596;23.044;2022-12-04T14:14:54;13.53;;;12.10;;
15567;SDS011;7885;42.596;23.044;2022-12-04T14:17:24;17.17;;;13.90;;
15567;SDS011;7885;42.596;23.044;2022-12-04T14:19:55;22.27;;;14.30;;
15567;SDS011;7885;42.596;23.044;2022-12-04T14:22:24;18.90;;;14.80;;
15567;SDS011;7885;42.596;23.044;2022-12-04T14:25:03;33.40;;;22.63;;
15567;SDS011;7885;42.596;23.044;2022-12-04T14:27:32;32.67;;;18.97;;
15567;SDS011;7885;42.596;23.044;2022-12-04T14:37:10;16.33;;;12.70;;
15567;SDS011;7885;42.596;23.044;2022-12-04T14:39:45;13.27;;;10.73;;
15567;SDS011;7885;42.596;23.044;2022-12-04T14:42:15;16.43;;;12.40;;
15567;SDS011;7885;42.596;23.044;2022-12-04T14:44:44;16.10;;;13.10;;
15567;SDS011;7885;42.596;23.044;2022-12-04T14:47:15;19.17;;;14.03;;
15567;SDS011;7885;42.596;23.044;2022-12-04T14:49:51;16.50;;;13.20;;
15567;SDS011;7885;42.596;23.044;2022-12-04T14:52:33;15.27;;;12.03;;
15567;SDS011;7885;42.596;23.044;2022-12-04T14:55:07;18.60;;;14.17;;
15567;SDS011;7885;42.596;23.044;2022-12-04T14:57:44;15.93;;;12.87;;
15567;SDS011;7885;42.596;23.044;2022-12-04T15:00:16;13.10;;;10.73;;
15567;SDS011;7885;42.596;23.044;2022-12-04T15:02:46;12.13;;;8.63;;
15567;SDS011;7885;42.596;23.044;2022-12-04T15:05:17;9.87;;;8.70;;
15567;SDS011;7885;42.596;23.044;2022-12-04T15:07:47;10.97;;;9.73;;
15567;SDS011;7885;42.596;23.044;2022-12-04T15:10:17;10.97;;;8.83;;
15567;SDS011;7885;42.596;23.044;2022-12-04T15:13:03;10.90;;;9.43;;
15567;SDS011;7885;42.596;23.044;2022-12-04T15:15:30;10.10;;;8.47;;
15567;SDS011;7885;42.596;23.044;2022-12-04T15:17:58;11.57;;;8.87;;
15567;SDS011;7885;42.596;23.044;2022-12-04T15:20:26;11.13;;;9.43;;
15567;SDS011;7885;42.596;23.044;2022-12-04T15:22:56;10.27;;;9.13;;
15567;SDS011;7885;42.596;23.044;2022-12-04T15:25:24;11.40;;;9.23;;
15567;SDS011;7885;42.596;23.044;2022-12-04T15:27:53;10.77;;;8.37;;
15567;SDS011;7885;42.596;23.044;2022-12-04T15:30:31;13.03;;;9.70;;
15567;SDS011;7885;42.596;23.044;2022-12-04T15:33:03;13.00;;;9.53;;
15567;SDS011;7885;42.596;23.044;2022-12-04T15:35:31;12.73;;;10.73;;
15567;SDS011;7885;42.596;23.044;2022-12-04T15:38:01;18.63;;;13.83;;
15567;SDS011;7885;42.596;23.044;2022-12-04T15:40:28;14.80;;;12.17;;
15567;SDS011;7885;42.596;23.044;2022-12-04T15:43:05;13.20;;;10.07;;
15567;SDS011;7885;42.596;23.044;2022-12-04T15:45:39;12.10;;;10.00;;
15567;SDS011;7885;42.596;23.044;2022-12-04T15:48:06;12.73;;;9.67;;
15567;SDS011;7885;42.596;23.044;2022-12-04T15:50:33;18.17;;;12.47;;
15567;SDS011;7885;42.596;23.044;2022-12-04T15:53:11;17.30;;;13.77;;
15567;SDS011;7885;42.596;23.044;2022-12-04T15:55:46;16.97;;;12.63;;
15567;SDS011;7885;42.596;23.044;2022-12-04T15:58:17;18.23;;;13.53;;
15567;SDS011;7885;42.596;23.044;2022-12-04T16:00:46;18.07;;;13.70;;
15567;SDS011;7885;42.596;23.044;2022-12-04T16:03:21;17.33;;;14.17;;
15567;SDS011;7885;42.596;23.044;2022-12-04T16:06:00;18.37;;;13.80;;
15567;SDS011;7885;42.596;23.044;2022-12-04T16:08:31;19.63;;;14.00;;
15567;SDS011;7885;42.596;23.044;2022-12-04T16:11:00;24.93;;;17.90;;
15567;SDS011;7885;42.596;23.044;2022-12-04T16:13:29;26.87;;;19.17;;
15567;SDS011;7885;42.596;23.044;2022-12-04T16:15:57;21.77;;;16.77;;
15567;SDS011;7885;42.596;23.044;2022-12-04T16:18:25;23.80;;;16.23;;
15567;SDS011;7885;42.596;23.044;2022-12-04T16:20:53;26.30;;;16.93;;
15567;SDS011;7885;42.596;23.044;2022-12-04T16:23:21;15.10;;;12.73;;
15567;SDS011;7885;42.596;23.044;2022-12-04T16:25:50;15.97;;;12.17;;